Time;durP1;ratioP1;P1;durP2;ratioP2;P2;SDS_P1;SDS_P2;PMS_P1;PMS_P2;Temp;Humidity;BMP_temperature;BMP_pressure;BME280_temperature;BME280_humidity;BME280_pressure;Samples;Min_cycle;Max_cycle;Signal;HPM_P1;HPM_P2
2023/06/09 00:00:19;;;;;;;23.07;9.03;;;11.80;99.90;;;;;;5016599;28;20049;-79
2023/06/09 00:02:48;;;;;;;21.27;9.00;;;11.80;99.90;;;;;;5017447;28;20099;-79
2023/06/09 00:05:15;;;;;;;19.13;8.63;;;11.80;99.90;;;;;;5025425;28;20563;-80
2023/06/09 00:07:41;;;;;;;17.43;8.73;;;11.80;99.90;;;;;;5016045;28;20049;-79
2023/06/09 00:10:07;;;;;;;23.13;10.07;;;11.70;99.90;;;;;;5003048;28;20101;-80
2023/06/09 00:12:32;;;;;;;19.27;8.90;;;11.70;99.90;;;;;;5015421;28;20073;-79
2023/06/09 00:14:58;;;;;;;20.80;8.97;;;11.70;99.90;;;;;;5014889;28;20118;-79
2023/06/09 00:17:25;;;;;;;18.47;9.00;;;11.70;99.90;;;;;;5028143;28;20037;-79
2023/06/09 00:19:52;;;;;;;24.97;10.30;;;11.60;99.90;;;;;;5011669;28;20058;-78
2023/06/09 00:22:19;;;;;;;22.70;9.60;;;11.60;99.90;;;;;;5021428;28;20222;-79
2023/06/09 00:24:46;;;;;;;23.23;10.00;;;11.60;99.90;;;;;;5015292;28;20509;-79
2023/06/09 00:27:12;;;;;;;22.63;9.70;;;11.60;99.90;;;;;;5014853;28;20052;-79
2023/06/09 00:29:37;;;;;;;24.87;10.90;;;11.60;99.90;;;;;;5016901;28;20042;-78
2023/06/09 00:32:04;;;;;;;21.03;10.20;;;11.60;99.90;;;;;;5026575;28;20101;-79
2023/06/09 00:34:30;;;;;;;22.70;10.20;;;11.50;99.90;;;;;;5001641;28;20319;-79
2023/06/09 00:36:56;;;;;;;23.37;10.67;;;11.50;99.90;;;;;;5009162;28;20109;-79
2023/06/09 00:39:22;;;;;;;22.33;9.90;;;11.50;99.90;;;;;;5036062;28;20042;-80
2023/06/09 00:41:48;;;;;;;21.77;10.40;;;11.50;99.90;;;;;;5026729;28;20110;-79
2023/06/09 00:44:15;;;;;;;20.93;9.60;;;11.50;99.90;;;;;;5003429;28;20534;-79
2023/06/09 00:46:42;;;;;;;23.10;10.13;;;11.50;99.90;;;;;;5019811;28;20049;-79
2023/06/09 00:49:09;;;;;;;22.23;10.23;;;11.50;99.90;;;;;;5020895;28;20051;-79
2023/06/09 00:51:36;;;;;;;21.20;8.90;;;11.40;99.90;;;;;;5005667;28;20049;-79
2023/06/09 00:54:02;;;;;;;24.70;10.47;;;11.40;99.90;;;;;;5023126;28;20596;-78
2023/06/09 00:56:30;;;;;;;20.80;9.40;;;11.50;99.90;;;;;;5018679;28;20497;-79
2023/06/09 00:58:55;;;;;;;25.10;9.77;;;11.50;99.90;;;;;;4999633;28;20510;-79
2023/06/09 01:01:21;;;;;;;20.07;10.07;;;11.50;99.90;;;;;;5001495;28;20049;-80
2023/06/09 01:03:47;;;;;;;19.70;9.13;;;11.50;99.90;;;;;;5018655;28;20079;-78
2023/06/09 01:06:32;;;;;;;18.67;9.47;;;11.50;99.90;;;;;;5015758;28;20034;-79
2023/06/09 01:09:02;;;;;;;20.20;9.47;;;11.50;99.90;;;;;;5037260;28;20049;-79
2023/06/09 01:11:49;;;;;;;20.93;10.07;;;11.40;99.90;;;;;;5021059;28;20060;-78
2023/06/09 01:14:38;;;;;;;23.43;10.27;;;11.50;99.90;;;;;;5002535;28;20042;-79
2023/06/09 01:17:18;;;;;;;26.77;9.97;;;11.40;99.90;;;;;;5019946;28;20034;-79
2023/06/09 01:19:47;;;;;;;21.23;9.50;;;11.40;99.90;;;;;;5004114;28;20045;-79
2023/06/09 01:22:35;;;;;;;21.67;9.97;;;11.40;99.90;;;;;;5041989;28;20055;-79
2023/06/09 01:25:39;;;;;;;24.13;10.80;;;11.40;99.90;;;;;;5019624;28;20053;-78
2023/06/09 01:28:26;;;;;;;28.67;10.40;;;11.50;99.90;;;;;;5035036;28;20036;-78
2023/06/09 01:30:54;;;;;;;26.47;9.97;;;11.40;99.90;;;;;;5026468;28;20056;-79
2023/06/09 01:33:22;;;;;;;22.33;10.70;;;11.40;99.90;;;;;;5030546;28;20084;-78
2023/06/09 01:35:49;;;;;;;27.53;10.80;;;11.40;99.90;;;;;;5031422;28;20071;-79
2023/06/09 01:38:16;;;;;;;25.67;10.83;;;11.40;99.90;;;;;;5045921;28;20057;-78
2023/06/09 01:40:43;;;;;;;20.83;10.17;;;11.40;99.90;;;;;;5024623;28;20037;-78
2023/06/09 01:43:09;;;;;;;25.93;10.73;;;11.30;99.90;;;;;;5010077;28;20046;-78
2023/06/09 01:45:35;;;;;;;24.80;11.23;;;11.40;99.90;;;;;;5021502;28;20048;-79
2023/06/09 01:48:25;;;;;;;25.23;10.57;;;11.30;99.90;;;;;;5021258;28;20048;-79
2023/06/09 01:51:08;;;;;;;28.50;11.37;;;11.30;99.90;;;;;;5028787;28;20451;-78
2023/06/09 01:53:41;;;;;;;24.57;11.80;;;11.40;99.90;;;;;;5027891;28;20049;-79
2023/06/09 01:56:32;;;;;;;28.07;11.33;;;11.40;99.90;;;;;;5036676;28;20179;-78
2023/06/09 01:59:03;;;;;;;22.40;10.60;;;11.40;99.90;;;;;;5029216;28;20416;-79
2023/06/09 02:01:32;;;;;;;28.08;11.00;;;11.30;99.90;;;;;;5034249;28;20049;-79
2023/06/09 02:04:00;;;;;;;24.00;10.70;;;11.40;99.90;;;;;;5019585;28;20230;-80
2023/06/09 02:06:26;;;;;;;24.40;11.10;;;11.40;99.90;;;;;;5036120;28;20049;-80
2023/06/09 02:08:52;;;;;;;27.23;11.77;;;11.40;99.90;;;;;;5021958;28;20053;-79
2023/06/09 02:11:18;;;;;;;26.10;11.13;;;11.40;99.90;;;;;;5021896;28;20401;-79
2023/06/09 02:13:55;;;;;;;25.00;10.60;;;11.40;99.90;;;;;;5021955;28;20053;-79
2023/06/09 02:16:22;;;;;;;24.97;11.20;;;11.40;99.90;;;;;;5020509;28;20872;-78
2023/06/09 02:18:48;;;;;;;22.07;10.77;;;11.40;99.90;;;;;;5005285;28;20044;-79
2023/06/09 02:21:15;;;;;;;27.60;11.00;;;11.40;99.90;;;;;;5045761;28;20059;-81
2023/06/09 02:23:41;;;;;;;27.00;11.93;;;11.40;99.90;;;;;;5012403;28;20037;-81
2023/06/09 02:26:07;;;;;;;21.20;11.50;;;11.40;99.90;;;;;;5022077;28;20467;-82
2023/06/09 02:28:33;;;;;;;30.87;11.47;;;11.40;99.90;;;;;;5002506;28;20040;-80
2023/06/09 02:30:59;;;;;;;23.80;12.07;;;11.40;99.90;;;;;;5022521;28;20056;-81
2023/06/09 02:33:25;;;;;;;25.70;11.13;;;11.40;99.90;;;;;;5006906;28;20053;-80
2023/06/09 02:35:52;;;;;;;30.53;11.63;;;11.30;99.90;;;;;;5024625;28;20078;-81
2023/06/09 02:38:18;;;;;;;20.67;12.27;;;11.30;99.90;;;;;;5038488;28;20053;-80
2023/06/09 02:40:46;;;;;;;29.60;12.07;;;11.30;99.90;;;;;;5041314;28;20065;-80
2023/06/09 02:43:12;;;;;;;29.23;12.37;;;11.40;99.90;;;;;;5028376;28;20049;-81
2023/06/09 02:45:38;;;;;;;25.80;11.97;;;11.30;99.90;;;;;;5017795;28;20048;-80
2023/06/09 02:48:04;;;;;;;25.23;11.73;;;11.30;99.90;;;;;;5026364;28;20048;-80
2023/06/09 02:50:30;;;;;;;27.07;12.83;;;11.30;99.90;;;;;;5021387;28;20456;-81
2023/06/09 02:52:56;;;;;;;27.43;12.23;;;11.30;99.90;;;;;;5039646;28;20041;-80
2023/06/09 02:55:22;;;;;;;28.00;12.77;;;11.30;99.90;;;;;;5020897;28;20057;-80
2023/06/09 02:57:48;;;;;;;29.53;12.87;;;11.30;99.90;;;;;;5020088;28;20038;-80
2023/06/09 03:00:14;;;;;;;25.80;12.77;;;11.30;99.90;;;;;;5006196;28;20040;-80
2023/06/09 03:02:41;;;;;;;27.90;12.30;;;11.30;99.90;;;;;;5018937;28;20079;-80
2023/06/09 03:05:08;;;;;;;26.73;13.43;;;11.40;99.90;;;;;;5048218;28;20049;-81
2023/06/09 03:07:33;;;;;;;28.20;12.83;;;11.30;99.90;;;;;;5002446;28;20057;-81
2023/06/09 03:10:00;;;;;;;29.20;12.47;;;11.30;99.90;;;;;;5020830;28;20053;-81
2023/06/09 03:12:26;;;;;;;26.03;12.60;;;11.30;99.90;;;;;;5044513;28;20101;-80
2023/06/09 03:14:51;;;;;;;26.87;13.17;;;11.30;99.90;;;;;;5018731;28;20076;-82
2023/06/09 03:17:17;;;;;;;28.43;12.83;;;11.30;99.90;;;;;;5022770;28;20940;-81
2023/06/09 03:19:43;;;;;;;29.07;12.53;;;11.30;99.90;;;;;;5019415;28;20052;-81
2023/06/09 03:22:10;;;;;;;26.07;12.60;;;11.30;99.90;;;;;;5018914;28;20041;-81
2023/06/09 03:24:35;;;;;;;25.73;12.80;;;11.40;99.90;;;;;;5043331;28;20046;-81
2023/06/09 03:27:01;;;;;;;28.40;12.47;;;11.40;99.90;;;;;;5021362;28;20053;-82
2023/06/09 03:29:28;;;;;;;27.43;12.37;;;11.30;99.90;;;;;;5024465;28;20124;-81
2023/06/09 03:31:55;;;;;;;29.43;13.37;;;11.30;99.90;;;;;;5027978;28;20151;-80
2023/06/09 03:34:21;;;;;;;26.57;13.60;;;11.30;99.90;;;;;;5034930;28;20412;-81
2023/06/09 03:36:47;;;;;;;26.83;12.77;;;11.30;99.90;;;;;;5039568;28;20050;-80
2023/06/09 03:39:12;;;;;;;26.20;12.60;;;11.30;99.90;;;;;;5005779;28;20049;-79
2023/06/09 03:41:38;;;;;;;25.87;13.33;;;11.40;99.90;;;;;;5019318;28;20048;-80
2023/06/09 03:44:04;;;;;;;25.03;11.80;;;11.40;99.90;;;;;;5044777;28;20066;-81
2023/06/09 03:46:30;;;;;;;29.10;13.10;;;11.50;99.90;;;;;;5021344;28;20072;-81
2023/06/09 03:48:56;;;;;;;24.63;12.33;;;11.60;99.90;;;;;;5018627;28;20658;-81
2023/06/09 03:51:21;;;;;;;29.10;11.87;;;11.60;99.90;;;;;;5025746;28;20033;-81
2023/06/09 03:53:47;;;;;;;23.63;11.53;;;11.60;99.90;;;;;;5008777;28;20045;-80
2023/06/09 03:56:13;;;;;;;23.77;11.97;;;11.60;99.90;;;;;;5019733;28;20052;-80
2023/06/09 03:58:39;;;;;;;26.33;12.10;;;11.60;99.90;;;;;;5000619;28;20049;-80
2023/06/09 04:01:10;;;;;;;26.27;11.70;;;11.60;99.90;;;;;;5037807;28;20130;-82
2023/06/09 04:03:39;;;;;;;24.10;11.83;;;11.60;99.90;;;;;;5022929;28;20046;-81
2023/06/09 04:06:05;;;;;;;24.93;11.20;;;11.60;99.90;;;;;;5045102;28;20087;-80
2023/06/09 04:08:31;;;;;;;24.27;11.73;;;11.70;99.90;;;;;;5024754;28;20107;-80
2023/06/09 04:10:58;;;;;;;24.20;11.47;;;11.70;99.90;;;;;;5021781;28;20105;-80
2023/06/09 04:13:23;;;;;;;20.43;11.87;;;11.70;99.90;;;;;;5039137;28;20045;-81
2023/06/09 04:15:49;;;;;;;24.97;11.60;;;11.70;99.90;;;;;;5049050;28;20055;-80
2023/06/09 04:18:15;;;;;;;21.17;11.13;;;11.70;99.90;;;;;;5018956;28;20033;-81
2023/06/09 04:20:41;;;;;;;24.43;12.33;;;11.70;99.90;;;;;;5017062;28;20041;-81
2023/06/09 04:23:08;;;;;;;25.60;10.87;;;11.80;99.90;;;;;;5020678;28;20052;-79
2023/06/09 04:25:34;;;;;;;28.67;11.93;;;11.80;99.90;;;;;;5035416;28;20045;-79
2023/06/09 04:28:02;;;;;;;24.43;11.53;;;11.90;99.90;;;;;;5006199;28;20128;-79
2023/06/09 04:30:29;;;;;;;23.17;11.73;;;11.90;99.90;;;;;;5042320;28;20417;-79
2023/06/09 04:32:58;;;;;;;20.27;11.53;;;12.10;99.90;;;;;;5040384;28;20053;-80
2023/06/09 04:35:25;;;;;;;23.67;10.77;;;12.20;99.90;;;;;;5011720;28;20055;-79
2023/06/09 04:37:51;;;;;;;21.07;11.40;;;12.20;99.90;;;;;;5037007;28;20533;-79
2023/06/09 04:40:21;;;;;;;25.48;11.48;;;12.30;99.90;;;;;;5043087;28;20087;-79
2023/06/09 04:42:52;;;;;;;27.77;10.77;;;12.30;99.90;;;;;;5003639;28;20089;-79
2023/06/09 04:45:25;;;;;;;23.38;12.02;;;12.40;99.90;;;;;;5025062;28;20443;-80
2023/06/09 04:47:51;;;;;;;25.17;10.63;;;12.50;99.90;;;;;;5026465;28;20263;-79
2023/06/09 04:50:16;;;;;;;28.43;11.80;;;12.50;99.90;;;;;;5022459;28;20045;-80
2023/06/09 04:52:44;;;;;;;25.03;12.13;;;12.60;99.90;;;;;;5005507;28;20046;-79
2023/06/09 04:55:11;;;;;;;25.85;12.23;;;12.60;99.90;;;;;;5023886;28;20056;-78
2023/06/09 04:57:38;;;;;;;26.42;11.75;;;12.60;99.90;;;;;;5001276;28;20042;-81
2023/06/09 05:00:07;;;;;;;25.92;11.75;;;12.70;99.90;;;;;;5047793;28;20037;-81
2023/06/09 05:02:33;;;;;;;27.73;11.90;;;12.70;99.90;;;;;;5015452;28;20162;-79
2023/06/09 05:04:59;;;;;;;25.52;11.38;;;12.70;99.90;;;;;;5041454;28;20045;-81
2023/06/09 05:07:25;;;;;;;26.87;12.63;;;12.80;99.90;;;;;;5027578;28;20045;-81
2023/06/09 05:09:50;;;;;;;24.65;11.20;;;12.80;99.90;;;;;;5026903;28;20049;-83
2023/06/09 05:12:16;;;;;;;27.27;11.77;;;12.90;99.90;;;;;;5037035;28;20076;-80
2023/06/09 05:14:42;;;;;;;24.17;12.07;;;12.90;99.90;;;;;;5026435;28;20052;-80
2023/06/09 05:17:08;;;;;;;24.98;11.43;;;13.00;99.90;;;;;;5013568;28;20052;-82
2023/06/09 05:19:34;;;;;;;27.15;11.77;;;13.00;99.90;;;;;;5022431;28;20029;-83
2023/06/09 05:21:59;;;;;;;26.02;11.20;;;13.10;99.90;;;;;;5015981;28;20103;-82
2023/06/09 05:24:25;;;;;;;25.13;10.80;;;13.10;99.90;;;;;;5044591;28;20095;-81
2023/06/09 05:26:51;;;;;;;25.17;11.15;;;13.20;99.90;;;;;;5029011;28;20045;-84
2023/06/09 05:29:17;;;;;;;22.60;11.70;;;13.30;99.90;;;;;;5040796;28;20088;-83
2023/06/09 05:31:42;;;;;;;30.42;12.13;;;13.30;99.90;;;;;;5024063;28;20041;-82
2023/06/09 05:34:08;;;;;;;21.88;11.35;;;13.30;99.90;;;;;;5030315;28;20033;-82
2023/06/09 05:36:34;;;;;;;25.95;11.80;;;13.40;99.90;;;;;;5041849;28;20041;-84
2023/06/09 05:39:00;;;;;;;24.60;11.35;;;13.50;99.90;;;;;;5006593;28;20061;-83
2023/06/09 05:41:26;;;;;;;28.98;11.23;;;13.50;99.90;;;;;;5021810;28;20050;-83
2023/06/09 05:43:52;;;;;;;22.73;11.50;;;13.60;99.90;;;;;;5025157;28;20842;-83
2023/06/09 05:46:19;;;;;;;24.23;11.20;;;13.70;99.90;;;;;;5022097;28;20748;-85
2023/06/09 05:48:44;;;;;;;23.55;10.98;;;13.80;99.90;;;;;;5005467;28;20395;-83
2023/06/09 05:51:10;;;;;;;26.20;11.82;;;13.90;99.90;;;;;;5023571;28;20053;-84
2023/06/09 05:53:37;;;;;;;20.02;11.05;;;13.90;99.90;;;;;;5006318;28;20145;-83
2023/06/09 05:56:02;;;;;;;22.90;11.27;;;14.00;99.90;;;;;;5026339;28;20049;-84
2023/06/09 05:58:33;;;;;;;21.27;11.68;;;14.10;99.90;;;;;;5002726;28;20076;-89
2023/06/09 06:00:59;;;;;;;26.65;11.68;;;14.10;99.90;;;;;;5054316;28;20109;-82
2023/06/09 06:03:26;;;;;;;23.55;11.30;;;14.20;99.90;;;;;;5028039;28;20049;-82
2023/06/09 06:05:52;;;;;;;26.20;12.23;;;14.30;99.90;;;;;;5023748;28;20092;-82
2023/06/09 06:08:17;;;;;;;24.02;12.00;;;14.40;99.90;;;;;;5024815;28;20037;-82
2023/06/09 06:10:43;;;;;;;24.75;11.70;;;14.60;99.90;;;;;;5020206;28;20054;-85
2023/06/09 06:13:09;;;;;;;26.10;11.25;;;14.60;99.90;;;;;;5024357;28;20049;-83
2023/06/09 06:15:35;;;;;;;25.77;11.88;;;14.70;99.90;;;;;;5025002;28;20141;-84
2023/06/09 06:18:00;;;;;;;25.83;12.13;;;14.70;99.90;;;;;;5018954;28;20050;-83
2023/06/09 06:20:26;;;;;;;26.30;12.82;;;14.80;99.90;;;;;;5016408;28;20096;-82
2023/06/09 06:22:52;;;;;;;24.90;12.13;;;14.90;99.90;;;;;;5009414;28;20038;-84
2023/06/09 06:25:18;;;;;;;25.52;13.23;;;15.00;99.90;;;;;;5005613;28;20045;-86
2023/06/09 06:27:44;;;;;;;25.15;12.75;;;15.10;99.90;;;;;;5013126;28;20423;-84
2023/06/09 06:30:10;;;;;;;23.23;11.85;;;15.20;99.90;;;;;;5038052;28;20038;-84
2023/06/09 06:32:39;;;;;;;28.10;12.00;;;15.30;99.90;;;;;;5016610;28;20073;-83
2023/06/09 06:35:07;;;;;;;24.15;12.18;;;15.40;99.90;;;;;;5020821;28;20049;-83
2023/06/09 06:37:33;;;;;;;22.27;12.10;;;15.60;99.90;;;;;;5021635;28;20070;-87
2023/06/09 06:39:59;;;;;;;21.15;11.75;;;15.60;99.90;;;;;;5005580;28;20066;-79
2023/06/09 06:42:24;;;;;;;22.38;11.85;;;15.70;99.90;;;;;;5018134;28;20045;-79
2023/06/09 06:44:50;;;;;;;23.38;11.30;;;15.90;99.90;;;;;;5014624;28;20528;-80
2023/06/09 06:47:16;;;;;;;23.17;12.75;;;16.10;99.90;;;;;;5019376;28;20054;-80
2023/06/09 06:49:41;;;;;;;23.67;12.55;;;16.20;99.90;;;;;;5023037;28;20520;-80
2023/06/09 06:52:07;;;;;;;20.65;12.27;;;16.20;99.90;;;;;;5019430;28;20055;-80
2023/06/09 06:54:33;;;;;;;17.75;10.68;;;16.30;99.90;;;;;;4998816;28;20041;-81
2023/06/09 06:57:00;;;;;;;23.27;12.02;;;16.30;99.90;;;;;;5004460;28;20049;-79
2023/06/09 06:59:26;;;;;;;23.52;11.13;;;16.40;99.90;;;;;;5023200;28;20049;-80
2023/06/09 07:01:52;;;;;;;20.20;11.57;;;16.60;99.90;;;;;;5013163;28;20073;-84
2023/06/09 07:04:18;;;;;;;23.55;12.15;;;16.70;99.90;;;;;;5019070;28;20053;-87
2023/06/09 07:06:43;;;;;;;21.15;12.13;;;16.90;99.90;;;;;;5014252;28;20104;-82
2023/06/09 07:09:09;;;;;;;21.73;12.18;;;17.00;99.90;;;;;;5019304;28;20042;-83
2023/06/09 07:11:36;;;;;;;20.13;12.23;;;17.10;99.90;;;;;;5020116;28;20187;-83
2023/06/09 07:14:02;;;;;;;21.40;10.90;;;17.20;99.90;;;;;;5004189;28;20045;-81
2023/06/09 07:16:27;;;;;;;19.67;11.45;;;17.40;99.90;;;;;;5023723;28;20045;-84
2023/06/09 07:18:53;;;;;;;20.92;11.25;;;17.40;99.90;;;;;;5018215;28;20124;-86
2023/06/09 07:21:19;;;;;;;19.75;11.05;;;17.50;99.90;;;;;;5017453;28;20057;-81
2023/06/09 07:23:44;;;;;;;20.30;11.52;;;17.60;99.90;;;;;;5012516;28;20046;-80
2023/06/09 07:26:10;;;;;;;22.17;11.63;;;17.70;99.90;;;;;;5020259;28;20080;-81
2023/06/09 07:28:36;;;;;;;22.60;11.27;;;17.90;99.90;;;;;;5019397;28;20046;-82
2023/06/09 07:31:02;;;;;;;15.15;9.77;;;18.10;99.90;;;;;;5018866;28;20046;-81
2023/06/09 07:33:32;;;;;;;19.13;10.68;;;18.20;99.90;;;;;;4999432;28;20045;-80
2023/06/09 07:35:58;;;;;;;14.50;9.40;;;18.30;99.90;;;;;;5016600;28;20046;-81
2023/06/09 07:38:27;;;;;;;18.42;10.75;;;18.40;99.90;;;;;;5024029;28;20490;-79
2023/06/09 07:40:54;;;;;;;15.63;9.55;;;18.50;99.90;;;;;;5028266;28;20041;-81
2023/06/09 07:43:20;;;;;;;15.57;8.60;;;18.60;99.90;;;;;;5031514;28;20088;-81
2023/06/09 07:45:46;;;;;;;14.68;8.68;;;18.80;99.90;;;;;;5015606;28;20053;-81
2023/06/09 07:48:12;;;;;;;15.93;8.82;;;19.00;99.90;;;;;;5016022;28;20049;-81
2023/06/09 07:50:38;;;;;;;18.05;8.90;;;19.20;99.90;;;;;;5016472;28;20065;-80
2023/06/09 07:53:04;;;;;;;17.38;8.32;;;19.40;99.90;;;;;;5015849;28;20073;-81
2023/06/09 07:55:30;;;;;;;16.90;8.50;;;19.60;99.90;;;;;;5017930;28;20037;-81
2023/06/09 07:57:55;;;;;;;17.13;9.05;;;19.70;99.90;;;;;;5013978;28;20033;-81
2023/06/09 08:00:21;;;;;;;16.50;8.18;;;19.80;99.90;;;;;;5016421;28;20111;-81
2023/06/09 08:02:50;;;;;;;14.43;8.10;;;20.00;99.90;;;;;;5013602;28;20108;-82
2023/06/09 08:05:16;;;;;;;14.82;7.75;;;20.20;99.90;;;;;;5032649;28;20061;-82
2023/06/09 08:07:42;;;;;;;14.05;7.75;;;20.20;99.90;;;;;;5021342;28;20375;-80
2023/06/09 08:10:08;;;;;;;17.15;8.05;;;20.30;99.90;;;;;;5015902;28;20472;-81
2023/06/09 08:12:36;;;;;;;13.48;7.47;;;20.30;99.90;;;;;;5001570;28;20116;-82
2023/06/09 08:15:01;;;;;;;13.90;7.10;;;20.40;99.90;;;;;;5014201;28;20046;-81
2023/06/09 08:17:27;;;;;;;10.77;6.43;;;20.50;99.90;;;;;;5015931;28;20110;-81
2023/06/09 08:19:53;;;;;;;10.88;6.35;;;20.60;99.90;;;;;;4994009;28;20054;-80
2023/06/09 08:22:19;;;;;;;12.43;6.50;;;20.70;99.90;;;;;;5014484;28;20088;-81
2023/06/09 08:24:46;;;;;;;10.40;6.38;;;20.80;99.90;;;;;;5014893;28;20061;-80
2023/06/09 08:27:12;;;;;;;13.70;6.85;;;20.90;99.90;;;;;;5024376;28;20061;-80
2023/06/09 08:29:37;;;;;;;8.00;5.88;;;21.30;99.90;;;;;;5019229;28;20044;-82
2023/06/09 08:32:03;;;;;;;10.25;6.00;;;21.40;99.90;;;;;;4997736;28;20080;-80
2023/06/09 08:34:29;;;;;;;12.73;5.88;;;21.60;99.90;;;;;;5031912;28;20053;-81
2023/06/09 08:36:57;;;;;;;12.82;6.20;;;21.80;99.90;;;;;;5013239;28;20046;-81
2023/06/09 08:39:23;;;;;;;11.20;6.00;;;21.90;99.90;;;;;;5029898;28;20309;-82
2023/06/09 08:41:52;;;;;;;11.05;5.45;;;22.00;99.90;;;;;;5007366;28;20558;-80
2023/06/09 08:44:19;;;;;;;11.25;5.78;;;22.10;99.90;;;;;;5048813;28;20037;-82
2023/06/09 08:46:48;;;;;;;9.02;5.50;;;22.30;99.90;;;;;;5030116;28;20046;-79
2023/06/09 08:49:16;;;;;;;10.63;5.35;;;22.40;99.90;;;;;;5018233;28;20041;-81
2023/06/09 08:51:43;;;;;;;12.00;5.75;;;22.60;99.90;;;;;;5036783;28;20042;-81
2023/06/09 08:54:13;;;;;;;13.57;6.22;;;22.70;99.90;;;;;;5023934;28;20105;-81
2023/06/09 08:56:40;;;;;;;10.38;5.68;;;22.90;99.90;;;;;;5037080;28;20080;-81
2023/06/09 08:59:06;;;;;;;12.05;5.93;;;22.90;99.90;;;;;;5035640;28;20053;-81
2023/06/09 09:01:33;;;;;;;11.65;6.22;;;23.00;99.90;;;;;;5021825;28;20304;-80
2023/06/09 09:03:58;;;;;;;10.23;5.70;;;23.10;99.90;;;;;;5037181;28;20045;-80
2023/06/09 09:06:24;;;;;;;7.63;5.68;;;23.30;99.90;;;;;;5019537;28;20054;-80
2023/06/09 09:08:50;;;;;;;10.95;5.60;;;23.40;99.90;;;;;;5021294;28;20362;-81
2023/06/09 09:11:16;;;;;;;10.02;5.53;;;23.50;99.90;;;;;;5003150;28;20041;-77
2023/06/09 09:13:41;;;;;;;9.88;5.43;;;23.70;99.90;;;;;;5032388;28;20080;-81
2023/06/09 09:16:14;;;;;;;8.27;5.22;;;23.80;99.90;;;;;;5019564;28;20045;-81
2023/06/09 09:18:45;;;;;;;11.05;5.65;;;24.00;99.90;;;;;;5035446;28;20546;-81
2023/06/09 09:21:20;;;;;;;6.25;5.38;;;24.20;99.90;;;;;;5036569;28;20056;-82
2023/06/09 09:23:55;;;;;;;9.68;5.88;;;24.40;99.90;;;;;;5029283;28;20057;-82
2023/06/09 09:26:29;;;;;;;7.72;5.38;;;24.50;99.90;;;;;;5009181;28;20045;-81
2023/06/09 09:28:56;;;;;;;7.25;5.38;;;24.60;99.90;;;;;;5024186;28;20042;-81
2023/06/09 09:31:34;;;;;;;9.27;5.60;;;24.60;99.90;;;;;;5036262;28;20075;-81
2023/06/09 09:34:00;;;;;;;8.88;5.25;;;24.60;99.90;;;;;;5028272;28;20501;-81
2023/06/09 09:36:26;;;;;;;9.65;4.90;;;24.50;99.90;;;;;;5004443;28;20065;-80
2023/06/09 09:39:01;;;;;;;9.23;5.65;;;24.70;99.90;;;;;;5040066;28;20069;-81
2023/06/09 09:41:27;;;;;;;9.38;6.03;;;24.90;99.90;;;;;;5025810;28;20053;-83
2023/06/09 09:43:56;;;;;;;7.85;5.55;;;24.90;99.90;;;;;;5045197;28;20485;-82
2023/06/09 09:46:23;;;;;;;10.48;6.00;;;24.90;95.70;;;;;;5020311;28;20041;-82
2023/06/09 09:48:49;;;;;;;9.02;5.43;;;24.80;96.10;;;;;;5036939;28;20050;-81
2023/06/09 09:51:18;;;;;;;9.40;5.35;;;25.00;98.10;;;;;;5025317;28;20045;-82
2023/06/09 09:53:47;;;;;;;7.30;5.13;;;25.10;96.80;;;;;;5047286;28;20104;-81
2023/06/09 09:56:22;;;;;;;7.28;5.53;;;25.40;94.80;;;;;;5029747;28;20061;-82
2023/06/09 09:58:52;;;;;;;7.78;4.95;;;25.60;88.50;;;;;;5004765;28;20045;-83
2023/06/09 10:01:22;;;;;;;6.93;5.15;;;25.80;87.90;;;;;;5021696;28;20459;-82
2023/06/09 10:03:49;;;;;;;7.10;5.15;;;26.00;83.30;;;;;;5027078;28;20048;-81
2023/06/09 10:06:18;;;;;;;9.05;5.22;;;26.10;83.80;;;;;;5023650;28;20109;-81
2023/06/09 10:08:45;;;;;;;8.75;5.55;;;26.20;79.70;;;;;;5033721;28;20064;-82
2023/06/09 10:11:12;;;;;;;9.25;5.57;;;26.10;75.70;;;;;;5033404;28;20377;-83
2023/06/09 10:13:38;;;;;;;9.55;5.55;;;26.10;75.60;;;;;;5005545;28;20041;-81
2023/06/09 10:16:05;;;;;;;6.78;5.38;;;26.30;78.10;;;;;;5022664;28;20057;-82
2023/06/09 10:18:32;;;;;;;5.97;5.22;;;26.50;75.90;;;;;;5008692;28;20049;-83
2023/06/09 10:20:58;;;;;;;10.15;5.45;;;26.70;73.50;;;;;;5039113;28;20077;-82
2023/06/09 10:23:25;;;;;;;7.38;5.63;;;26.90;70.60;;;;;;5033346;28;20033;-82
2023/06/09 10:25:51;;;;;;;9.48;5.30;;;26.90;68.60;;;;;;5039447;28;20450;-81
2023/06/09 10:28:18;;;;;;;6.47;5.15;;;27.00;68.10;;;;;;5037055;28;20053;-81
2023/06/09 10:30:46;;;;;;;7.13;4.78;;;27.20;67.90;;;;;;5040036;28;20048;-82
2023/06/09 10:33:28;;;;;;;8.00;5.22;;;27.30;66.60;;;;;;5010910;28;20150;-77
2023/06/09 10:35:59;;;;;;;5.75;4.90;;;27.30;65.80;;;;;;5040716;28;20053;-79
2023/06/09 10:38:28;;;;;;;7.95;5.03;;;27.40;64.80;;;;;;5020562;28;20054;-80
2023/06/09 10:41:11;;;;;;;6.80;5.10;;;27.40;65.20;;;;;;5036529;28;20049;-78
2023/06/09 10:44:22;;;;;;;6.50;5.20;;;27.60;64.10;;;;;;5033159;28;20061;-84
2023/06/09 10:46:50;;;;;;;7.27;5.17;;;27.70;63.90;;;;;;4993628;28;20100;-83
2023/06/09 10:49:35;;;;;;;7.32;4.80;;;27.80;63.80;;;;;;5036650;28;20033;-85
2023/06/09 10:52:01;;;;;;;6.78;5.05;;;27.80;63.90;;;;;;5038680;28;20057;-79
2023/06/09 10:54:29;;;;;;;6.63;4.90;;;27.80;62.50;;;;;;5024542;28;20101;-79
2023/06/09 10:57:00;;;;;;;5.88;5.20;;;27.70;62.50;;;;;;5008553;28;20120;-78
2023/06/09 10:59:25;;;;;;;7.00;5.70;;;27.80;62.40;;;;;;5019386;28;20037;-78
2023/06/09 11:02:03;;;;;;;6.00;5.28;;;27.70;61.20;;;;;;5027122;28;20080;-79
2023/06/09 11:04:38;;;;;;;8.70;5.82;;;27.70;61.20;;;;;;5026158;28;20103;-78
2023/06/09 11:07:18;;;;;;;10.05;5.32;;;27.90;61.60;;;;;;5038987;28;20455;-78
2023/06/09 11:09:48;;;;;;;6.53;5.05;;;28.10;61.40;;;;;;5046907;28;20060;-78
2023/06/09 11:12:29;;;;;;;6.85;5.60;;;28.30;61.70;;;;;;5033520;28;20071;-78
2023/06/09 11:14:59;;;;;;;7.28;5.68;;;28.60;61.10;;;;;;5012157;28;20049;-78
2023/06/09 11:17:34;;;;;;;6.82;4.95;;;28.70;60.20;;;;;;5034473;28;20099;-79
2023/06/09 11:20:11;;;;;;;9.23;5.28;;;28.80;60.20;;;;;;5035451;28;20061;-79
2023/06/09 11:22:54;;;;;;;5.93;5.10;;;28.90;60.20;;;;;;5023621;28;20119;-79
2023/06/09 11:25:20;;;;;;;6.38;4.93;;;29.00;59.40;;;;;;5038078;28;20057;-79
2023/06/09 11:27:54;;;;;;;6.03;5.43;;;29.10;59.80;;;;;;5019711;28;20143;-78
2023/06/09 11:30:25;;;;;;;6.78;5.47;;;29.10;58.60;;;;;;5037714;28;20037;-79
2023/06/09 11:32:53;;;;;;;7.20;5.25;;;29.10;58.50;;;;;;5035113;28;20065;-80
2023/06/09 11:35:31;;;;;;;8.40;5.55;;;29.10;58.30;;;;;;5021955;28;20061;-79
2023/06/09 11:38:05;;;;;;;5.97;5.38;;;29.10;57.90;;;;;;5018438;28;20165;-79
2023/06/09 11:40:32;;;;;;;6.25;5.13;;;29.20;56.90;;;;;;5045506;28;20045;-79
2023/06/09 11:43:01;;;;;;;8.57;5.35;;;29.20;57.70;;;;;;5022833;28;20122;-79
2023/06/09 11:45:29;;;;;;;5.97;5.38;;;29.30;57.50;;;;;;5039987;28;20052;-77
2023/06/09 11:47:56;;;;;;;8.15;5.40;;;29.30;57.30;;;;;;5021655;28;20049;-78
2023/06/09 11:50:26;;;;;;;6.63;5.30;;;29.30;58.30;;;;;;5042186;28;20041;-78
2023/06/09 11:53:07;;;;;;;6.63;5.33;;;29.40;57.30;;;;;;5018889;28;20064;-78
2023/06/09 11:55:32;;;;;;;6.32;5.72;;;29.40;55.50;;;;;;5024973;28;20135;-79
2023/06/09 11:57:59;;;;;;;9.10;5.43;;;29.30;56.40;;;;;;5016069;28;20049;-78
2023/06/09 12:00:29;;;;;;;8.10;5.03;;;29.00;55.70;;;;;;5041023;28;20047;-78
2023/06/09 12:02:56;;;;;;;7.15;6.05;;;29.10;56.30;;;;;;5018657;28;20049;-77
2023/06/09 12:05:23;;;;;;;10.23;5.35;;;29.10;56.50;;;;;;5037877;28;20033;-79
2023/06/09 12:07:51;;;;;;;7.05;5.63;;;29.30;56.20;;;;;;5036525;28;20081;-78
2023/06/09 12:10:19;;;;;;;7.60;5.95;;;29.50;55.90;;;;;;5032526;28;20049;-78
2023/06/09 12:12:47;;;;;;;9.88;5.30;;;29.60;55.70;;;;;;5019199;28;20067;-78
2023/06/09 12:15:15;;;;;;;8.10;5.70;;;29.70;55.70;;;;;;5017200;28;20053;-78
2023/06/09 12:17:42;;;;;;;7.88;5.60;;;29.70;55.10;;;;;;5036729;28;20047;-79
2023/06/09 12:20:26;;;;;;;6.90;5.50;;;29.70;54.80;;;;;;5021700;28;20096;-79
2023/06/09 12:22:53;;;;;;;8.02;5.35;;;29.80;54.60;;;;;;5042026;28;20149;-79
2023/06/09 12:25:28;;;;;;;8.60;5.68;;;29.80;55.40;;;;;;5034557;28;20225;-79
2023/06/09 12:27:55;;;;;;;6.00;5.13;;;29.70;54.50;;;;;;5033939;28;20049;-78
2023/06/09 12:30:39;;;;;;;9.52;6.18;;;29.60;54.60;;;;;;5020023;28;20037;-79
2023/06/09 12:33:10;;;;;;;6.43;5.47;;;29.50;54.40;;;;;;5016868;28;20879;-78
2023/06/09 12:35:44;;;;;;;8.35;5.68;;;29.70;54.60;;;;;;5026377;28;20041;-78
2023/06/09 12:38:13;;;;;;;5.50;5.00;;;29.90;55.10;;;;;;5016349;28;20081;-76